createdAt,value
2023-04-19T00:02:00.416Z,8.57
2023-04-19T00:04:26.991Z,8.62
2023-04-19T00:06:53.794Z,8.63
2023-04-19T00:09:20.274Z,8.64
2023-04-19T00:11:46.622Z,8.63
2023-04-19T00:14:13.088Z,8.59
2023-04-19T00:16:39.823Z,8.48
2023-04-19T00:19:06.939Z,8.36
2023-04-19T00:21:33.331Z,8.29
2023-04-19T00:23:59.712Z,8.22
2023-04-19T00:26:26.728Z,8.17
2023-04-19T00:28:53.143Z,8.11
2023-04-19T00:31:19.576Z,8.08
2023-04-19T00:33:46.049Z,8.09
2023-04-19T00:36:12.367Z,8.05
2023-04-19T00:38:38.689Z,8.05
2023-04-19T00:41:05.109Z,7.98
2023-04-19T00:43:31.512Z,7.92
2023-04-19T00:45:58.140Z,7.92
2023-04-19T00:48:25.643Z,7.88
2023-04-19T00:50:52.084Z,7.84
2023-04-19T00:53:18.688Z,7.76
2023-04-19T00:55:45.419Z,7.73
2023-04-19T00:58:11.969Z,7.67
2023-04-19T01:00:38.623Z,7.61
2023-04-19T01:03:05.210Z,7.59
2023-04-19T01:05:31.865Z,7.54
2023-04-19T01:07:58.331Z,7.55
2023-04-19T01:10:25.043Z,7.56
2023-04-19T01:12:51.660Z,7.61
2023-04-19T01:15:18.234Z,7.67
2023-04-19T01:17:44.651Z,7.74
2023-04-19T01:20:11.619Z,7.79
2023-04-19T01:22:38.286Z,7.82
2023-04-19T01:25:05.300Z,7.87
2023-04-19T01:27:31.829Z,7.93
2023-04-19T01:29:58.245Z,7.98
2023-04-19T01:32:26.359Z,8.02
2023-04-19T01:34:53.285Z,8.08
2023-04-19T01:37:19.642Z,8.11
2023-04-19T01:39:46.397Z,8.18
2023-04-19T01:42:12.779Z,8.26
2023-04-19T01:44:39.134Z,8.29
2023-04-19T01:47:05.811Z,8.36
2023-04-19T01:49:32.532Z,8.43
2023-04-19T01:51:58.898Z,8.47
2023-04-19T01:54:25.286Z,8.49
2023-04-19T01:56:51.741Z,8.50
2023-04-19T01:59:18.102Z,8.57
2023-04-19T02:01:44.530Z,8.61
2023-04-19T02:04:11.201Z,8.64
2023-04-19T02:06:37.803Z,8.66
2023-04-19T02:09:04.392Z,8.69
2023-04-19T02:11:30.857Z,8.71
2023-04-19T02:13:57.152Z,8.74
2023-04-19T02:16:23.617Z,8.79
2023-04-19T02:18:50.011Z,8.81
2023-04-19T02:21:16.544Z,8.84
2023-04-19T02:23:42.880Z,8.85
2023-04-19T02:26:09.221Z,8.87
2023-04-19T02:28:35.654Z,8.87
2023-04-19T02:31:05.839Z,8.90
2023-04-19T02:33:32.535Z,8.92
2023-04-19T02:35:59.131Z,8.88
2023-04-19T02:38:25.670Z,8.90
2023-04-19T02:40:52.074Z,8.91
2023-04-19T02:43:18.551Z,8.92
2023-04-19T02:45:45.012Z,8.94
2023-04-19T02:48:11.423Z,8.98
2023-04-19T02:50:38.753Z,8.98
2023-04-19T02:53:05.403Z,8.97
2023-04-19T02:55:31.770Z,8.98
2023-04-19T02:57:58.354Z,8.99
2023-04-19T03:00:24.733Z,9.01
2023-04-19T03:02:51.258Z,9.04
2023-04-19T03:05:18.068Z,9.01
2023-04-19T03:07:44.774Z,9.00
2023-04-19T03:10:11.302Z,9.02
2023-04-19T03:12:37.721Z,9.02
2023-04-19T03:15:04.682Z,9.06
2023-04-19T03:17:31.227Z,9.07
2023-04-19T03:19:57.800Z,9.08
2023-04-19T03:22:24.208Z,9.09
2023-04-19T03:24:50.684Z,9.12
2023-04-19T03:27:17.060Z,9.14
2023-04-19T03:29:43.565Z,9.15
2023-04-19T03:32:09.926Z,9.15
2023-04-19T03:34:36.357Z,9.16
2023-04-19T03:37:02.774Z,9.15
2023-04-19T03:39:29.161Z,9.16
2023-04-19T03:41:55.512Z,9.15
2023-04-19T03:44:21.964Z,9.14
2023-04-19T03:46:48.880Z,9.15
2023-04-19T03:49:15.331Z,9.12
2023-04-19T03:51:41.742Z,9.05
2023-04-19T03:54:08.139Z,8.99
2023-04-19T03:56:34.522Z,8.88
2023-04-19T03:59:00.978Z,8.76
2023-04-19T04:01:28.005Z,8.66
2023-04-19T04:03:54.729Z,8.57
2023-04-19T04:06:21.241Z,8.49
2023-04-19T04:08:47.705Z,8.48
2023-04-19T04:11:14.292Z,8.49
2023-04-19T04:13:40.750Z,8.49
2023-04-19T04:16:07.466Z,8.48
2023-04-19T04:18:33.819Z,8.44
2023-04-19T04:21:00.856Z,8.38
2023-04-19T04:23:28.274Z,8.34
2023-04-19T04:26:01.146Z,8.29
2023-04-19T04:28:28.368Z,8.24
2023-04-19T04:30:57.777Z,8.18
2023-04-19T04:33:25.814Z,8.16
2023-04-19T04:35:53.351Z,8.13
2023-04-19T04:38:24.672Z,8.06
2023-04-19T04:40:56.067Z,8.02
2023-04-19T04:43:25.739Z,7.94
2023-04-19T04:45:52.255Z,7.90
2023-04-19T04:48:18.734Z,7.88
2023-04-19T04:50:45.269Z,7.83
2023-04-19T04:53:14.940Z,7.84
2023-04-19T04:55:41.510Z,7.82
2023-04-19T04:58:07.861Z,7.73
2023-04-19T05:00:34.529Z,7.70
2023-04-19T05:03:03.120Z,7.68
2023-04-19T05:05:29.889Z,7.66
2023-04-19T05:07:56.332Z,7.65
2023-04-19T05:10:22.698Z,7.65
2023-04-19T05:12:49.064Z,7.64
2023-04-19T05:15:15.473Z,7.64
2023-04-19T05:17:43.205Z,7.62
2023-04-19T05:20:09.957Z,7.63
2023-04-19T05:22:36.573Z,7.68
2023-04-19T05:25:03.144Z,7.69
2023-04-19T05:27:29.505Z,7.71
2023-04-19T05:29:55.822Z,7.72
2023-04-19T05:32:22.465Z,7.73
2023-04-19T05:34:49.079Z,7.72
2023-04-19T05:37:15.527Z,7.76
2023-04-19T05:39:43.628Z,7.83
2023-04-19T05:42:11.063Z,7.97
2023-04-19T05:44:37.425Z,8.20
2023-04-19T05:47:03.974Z,8.44
2023-04-19T05:49:30.377Z,8.70
2023-04-19T05:51:56.986Z,8.82
2023-04-19T05:54:23.512Z,8.82
2023-04-19T05:56:49.966Z,8.79
2023-04-19T05:59:16.468Z,8.79
2023-04-19T06:01:43.064Z,8.85
2023-04-19T06:04:09.724Z,8.92
2023-04-19T06:06:37.909Z,9.12
2023-04-19T06:09:04.471Z,9.32
2023-04-19T06:11:38.873Z,9.52
2023-04-19T06:14:06.128Z,9.67
2023-04-19T06:16:32.648Z,9.96
2023-04-19T06:18:59.108Z,10.46
2023-04-19T06:21:25.540Z,11.29
2023-04-19T06:23:51.934Z,11.85
2023-04-19T06:26:18.299Z,12.17
2023-04-19T06:28:44.655Z,12.25
2023-04-19T06:31:12.168Z,12.26
2023-04-19T06:33:38.757Z,12.44
2023-04-19T06:36:05.927Z,12.45
2023-04-19T06:38:32.433Z,12.26
2023-04-19T06:40:58.770Z,11.97
2023-04-19T06:43:25.652Z,11.69
2023-04-19T06:46:01.338Z,11.89
2023-04-19T06:48:28.030Z,12.01
2023-04-19T06:50:55.021Z,12.11
2023-04-19T06:53:21.489Z,12.38
2023-04-19T06:55:47.935Z,12.34
2023-04-19T06:58:14.339Z,12.25
2023-04-19T07:00:40.842Z,12.15
2023-04-19T07:03:07.345Z,12.07
2023-04-19T07:05:33.869Z,11.86
2023-04-19T07:08:00.246Z,11.89
2023-04-19T07:10:26.651Z,11.90
2023-04-19T07:12:53.022Z,11.87
2023-04-19T07:15:19.470Z,11.91
2023-04-19T07:17:46.841Z,11.93
2023-04-19T07:20:13.234Z,11.93
2023-04-19T07:22:39.642Z,12.17
2023-04-19T07:25:06.374Z,12.60
2023-04-19T07:27:32.759Z,13.07
2023-04-19T07:29:59.149Z,13.08
2023-04-19T07:32:25.731Z,13.06
2023-04-19T07:34:52.890Z,13.34
2023-04-19T07:37:19.780Z,13.40
2023-04-19T07:39:46.177Z,13.55
2023-04-19T07:42:12.477Z,13.92
2023-04-19T07:44:38.792Z,14.09
2023-04-19T07:47:06.128Z,13.97
2023-04-19T07:49:34.161Z,13.92
2023-04-19T07:52:04.164Z,14.11
2023-04-19T07:54:31.276Z,13.72
2023-04-19T07:56:58.995Z,13.74
2023-04-19T07:59:25.694Z,13.75
2023-04-19T08:01:52.216Z,13.66
2023-04-19T08:04:20.570Z,13.62
2023-04-19T08:06:47.715Z,13.20
2023-04-19T08:09:14.532Z,13.50
2023-04-19T08:11:41.070Z,13.65
2023-04-19T08:14:15.164Z,14.00
2023-04-19T08:19:17.747Z,14.40
2023-04-19T08:21:44.258Z,14.54
2023-04-19T08:24:10.772Z,14.66
2023-04-19T08:26:39.012Z,14.88
2023-04-19T08:29:05.427Z,15.20
2023-04-19T08:31:32.110Z,15.44
2023-04-19T08:34:00.236Z,15.80
2023-04-19T08:36:39.219Z,15.89
2023-04-19T08:39:15.063Z,16.43
2023-04-19T08:41:56.070Z,16.03
2023-04-19T08:44:36.476Z,16.30
2023-04-19T08:47:04.409Z,16.80
2023-04-19T08:49:34.552Z,17.02
2023-04-19T08:52:02.369Z,16.69
2023-04-19T08:54:32.208Z,16.37
2023-04-19T08:56:59.913Z,16.63
2023-04-19T08:59:26.451Z,16.47
2023-04-19T09:01:52.834Z,16.45
2023-04-19T09:04:35.519Z,16.52
2023-04-19T09:07:03.150Z,16.51
2023-04-19T09:12:00.084Z,16.75
2023-04-19T09:14:27.744Z,16.96
2023-04-19T09:16:54.616Z,17.06
2023-04-19T09:19:24.849Z,17.21
2023-04-19T09:21:53.943Z,17.31
2023-04-19T09:27:07.828Z,17.54
2023-04-19T09:29:34.305Z,17.48
2023-04-19T09:32:00.806Z,17.52
2023-04-19T09:34:29.639Z,17.30
2023-04-19T09:37:08.523Z,17.06
2023-04-19T09:39:39.738Z,17.04
2023-04-19T09:42:07.069Z,17.20
2023-04-19T09:45:09.442Z,17.80
2023-04-19T09:47:26.418Z,17.91
2023-04-19T09:50:19.226Z,18.41
2023-04-19T09:52:50.017Z,18.53
2023-04-19T09:55:26.906Z,18.25
2023-04-19T09:57:53.892Z,18.10
2023-04-19T10:00:21.712Z,18.19
2023-04-19T10:02:55.769Z,18.49
2023-04-19T10:05:24.059Z,18.85
2023-04-19T10:07:53.706Z,18.23
2023-04-19T10:10:27.633Z,18.40
2023-04-19T10:13:21.418Z,18.88
2023-04-19T10:15:54.173Z,18.77
2023-04-19T10:18:25.019Z,18.34
2023-04-19T10:21:00.861Z,18.49
2023-04-19T10:23:28.940Z,18.74
2023-04-19T10:26:00.425Z,19.06
2023-04-19T10:28:30.876Z,18.86
2023-04-19T10:31:01.648Z,18.80
2023-04-19T10:33:31.878Z,18.61
2023-04-19T10:35:59.400Z,18.56
2023-04-19T10:38:35.675Z,18.35
2023-04-19T10:41:03.749Z,18.61
2023-04-19T10:43:34.508Z,18.71
2023-04-19T10:46:06.863Z,18.70
2023-04-19T10:48:37.846Z,18.64
2023-04-19T10:51:35.617Z,19.01
2023-04-19T10:54:09.861Z,19.03
2023-04-19T10:56:36.141Z,19.17
2023-04-19T10:59:02.664Z,19.45
2023-04-19T11:01:43.033Z,19.67
2023-04-19T11:04:14.287Z,19.84
2023-04-19T11:06:52.711Z,19.70
2023-04-19T11:09:35.707Z,19.39
2023-04-19T11:12:09.806Z,19.78
2023-04-19T11:14:41.297Z,19.70
2023-04-19T11:17:27.832Z,19.71
2023-04-19T11:19:56.360Z,20.12
2023-04-19T11:22:40.406Z,20.13
2023-04-19T11:25:21.217Z,20.40
2023-04-19T11:27:52.840Z,20.28
2023-04-19T11:30:22.296Z,20.28
2023-04-19T11:32:53.428Z,20.39
2023-04-19T11:35:22.069Z,20.50
2023-04-19T11:37:48.629Z,20.45
2023-04-19T11:40:19.259Z,20.60
2023-04-19T11:42:46.165Z,20.70
2023-04-19T11:45:33.198Z,20.59
2023-04-19T11:48:04.180Z,20.34
2023-04-19T11:50:43.286Z,20.89
2023-04-19T11:53:28.752Z,20.62
2023-04-19T11:55:57.579Z,21.01
2023-04-19T11:58:25.143Z,21.28
2023-04-19T12:00:51.631Z,21.12
2023-04-19T12:03:25.771Z,21.30
2023-04-19T12:05:57.624Z,21.35
2023-04-19T12:08:34.715Z,21.31
2023-04-19T12:11:03.314Z,21.21
2023-04-19T12:13:31.263Z,21.25
2023-04-19T12:15:57.957Z,21.15
2023-04-19T12:18:24.994Z,21.13
2023-04-19T12:20:52.261Z,21.00
2023-04-19T12:23:20.582Z,21.36
2023-04-19T12:25:48.274Z,21.48
2023-04-19T12:28:15.940Z,21.92
2023-04-19T12:30:42.438Z,21.63
2023-04-19T12:33:09.248Z,21.53
2023-04-19T12:35:36.058Z,21.34
2023-04-19T12:38:03.296Z,21.41
2023-04-19T12:40:30.718Z,21.74
2023-04-19T12:42:57.291Z,21.73
2023-04-19T12:45:23.937Z,21.84
2023-04-19T12:47:50.618Z,21.49
2023-04-19T12:50:17.209Z,21.58
2023-04-19T12:52:45.418Z,21.71
2023-04-19T12:55:12.053Z,21.40
2023-04-19T12:57:38.530Z,21.19
2023-04-19T13:00:07.262Z,21.51
2023-04-19T13:02:34.528Z,22.05
2023-04-19T13:05:01.163Z,22.26
2023-04-19T13:07:28.477Z,22.19
2023-04-19T13:09:56.731Z,22.41
2023-04-19T13:12:23.870Z,22.45
2023-04-19T13:14:52.085Z,22.70
2023-04-19T13:17:19.564Z,22.53
2023-04-19T13:19:46.115Z,22.67
2023-04-19T13:22:12.467Z,22.62
2023-04-19T13:24:38.894Z,22.47
2023-04-19T13:27:08.288Z,22.31
2023-04-19T13:29:35.493Z,22.24
2023-04-19T13:32:01.870Z,22.31
2023-04-19T13:34:28.422Z,22.48
2023-04-19T13:36:55.320Z,23.07
2023-04-19T13:39:22.906Z,23.10
2023-04-19T13:41:49.233Z,22.95
2023-04-19T13:44:15.801Z,23.01
2023-04-19T13:46:42.517Z,22.94
2023-04-19T13:49:09.103Z,23.08
2023-04-19T13:51:48.914Z,23.57
2023-04-19T13:54:18.313Z,23.54
2023-04-19T13:56:45.214Z,23.70
2023-04-19T13:59:11.547Z,23.98
2023-04-19T14:01:38.668Z,24.55
2023-04-19T14:04:05.434Z,24.72
2023-04-19T14:06:32.677Z,24.63
2023-04-19T14:08:58.997Z,24.77
2023-04-19T14:11:25.843Z,24.10
2023-04-19T14:13:53.287Z,23.80
2023-04-19T14:16:20.669Z,23.74
2023-04-19T14:18:47.153Z,23.80
2023-04-19T14:21:14.547Z,23.74
2023-04-19T14:23:40.904Z,24.19
2023-04-19T14:26:07.636Z,24.57
2023-04-19T14:28:34.105Z,24.09
2023-04-19T14:31:00.480Z,24.32
2023-04-19T14:33:26.932Z,24.32
2023-04-19T14:35:53.368Z,24.16
2023-04-19T14:38:19.693Z,24.21
2023-04-19T14:40:46.534Z,24.18
2023-04-19T14:43:15.231Z,24.25
2023-04-19T14:45:41.905Z,23.79
2023-04-19T14:48:08.232Z,23.94
2023-04-19T14:50:34.592Z,24.42
2023-04-19T14:53:00.900Z,24.54
2023-04-19T14:55:27.814Z,25.07
2023-04-19T14:57:54.595Z,25.30
2023-04-19T15:00:21.246Z,24.68
2023-04-19T15:02:47.641Z,24.88
2023-04-19T15:05:14.461Z,25.03
2023-04-19T15:07:40.901Z,24.53
2023-04-19T15:10:07.820Z,24.32
2023-04-19T15:12:34.193Z,24.59
2023-04-19T15:15:00.740Z,24.53
2023-04-19T15:17:27.353Z,24.44
2023-04-19T15:19:53.756Z,24.21
2023-04-19T15:22:20.124Z,23.81
2023-04-19T15:24:46.494Z,23.70
2023-04-19T15:27:12.860Z,24.15
2023-04-19T15:29:40.049Z,24.37
2023-04-19T15:32:06.505Z,24.61
2023-04-19T15:34:32.932Z,24.31
2023-04-19T15:36:59.502Z,24.18
2023-04-19T15:39:25.971Z,23.98
2023-04-19T15:41:52.358Z,23.61
2023-04-19T15:44:18.744Z,24.00
2023-04-19T15:46:45.241Z,23.11
2023-04-19T15:49:11.669Z,21.35
2023-04-19T15:51:38.954Z,20.36
2023-04-19T15:54:05.911Z,19.65
2023-04-19T15:56:32.424Z,19.43
2023-04-19T15:58:59.444Z,19.22
2023-04-19T16:01:26.739Z,19.70
2023-04-19T16:03:53.344Z,20.55
2023-04-19T16:06:19.907Z,20.81
2023-04-19T16:08:46.219Z,20.28
2023-04-19T16:11:12.611Z,19.13
2023-04-19T16:13:38.976Z,18.17
2023-04-19T16:16:06.000Z,17.60
2023-04-19T16:18:32.309Z,17.20
2023-04-19T16:20:58.798Z,16.95
2023-04-19T16:23:25.480Z,17.02
2023-04-19T16:25:52.667Z,16.93
2023-04-19T16:28:19.790Z,16.94
2023-04-19T16:30:47.279Z,17.03
2023-04-19T16:33:15.214Z,16.84
2023-04-19T16:35:41.717Z,16.80
2023-04-19T16:38:08.120Z,16.61
2023-04-19T16:40:34.530Z,16.40
2023-04-19T16:43:00.907Z,16.20
2023-04-19T16:45:27.348Z,16.28
2023-04-19T16:47:53.867Z,16.16
2023-04-19T16:50:20.512Z,16.10
2023-04-19T16:52:46.890Z,16.18
2023-04-19T16:55:15.010Z,16.17
2023-04-19T16:57:41.636Z,16.07
2023-04-19T17:00:09.565Z,15.71
2023-04-19T17:02:36.072Z,15.47
2023-04-19T17:05:02.726Z,15.34
2023-04-19T17:07:29.287Z,15.28
2023-04-19T17:09:56.187Z,15.29
2023-04-19T17:12:22.653Z,15.16
2023-04-19T17:14:48.983Z,15.06
2023-04-19T17:17:15.405Z,15.15
2023-04-19T17:19:41.842Z,15.05
2023-04-19T17:22:08.149Z,14.98
2023-04-19T17:24:34.556Z,14.84
2023-04-19T17:27:00.927Z,14.74
2023-04-19T17:29:27.467Z,14.64
2023-04-19T17:31:54.062Z,14.51
2023-04-19T17:34:20.561Z,14.37
2023-04-19T17:36:46.892Z,14.35
2023-04-19T17:39:13.265Z,14.22
2023-04-19T17:41:39.726Z,14.29
2023-04-19T17:44:06.065Z,14.13
2023-04-19T17:46:32.397Z,14.04
2023-04-19T17:48:58.805Z,14.04
2023-04-19T17:51:25.195Z,13.93
2023-04-19T17:53:51.710Z,13.96
2023-04-19T17:56:18.169Z,13.94
2023-04-19T17:58:44.503Z,13.87
2023-04-19T18:01:10.860Z,13.74
2023-04-19T18:03:37.962Z,13.55
2023-04-19T18:06:04.568Z,13.47
2023-04-19T18:08:31.023Z,13.44
2023-04-19T18:10:57.365Z,13.32
2023-04-19T18:13:23.726Z,13.24
2023-04-19T18:15:50.202Z,13.18
2023-04-19T18:18:16.597Z,13.15
2023-04-19T18:20:42.963Z,13.08
2023-04-19T18:23:09.358Z,12.97
2023-04-19T18:25:36.828Z,12.93
2023-04-19T18:28:04.250Z,12.82
2023-04-19T18:30:30.651Z,12.73
2023-04-19T18:32:58.775Z,12.56
2023-04-19T18:35:25.252Z,12.48
2023-04-19T18:37:51.569Z,12.45
2023-04-19T18:40:18.864Z,12.32
2023-04-19T18:42:45.618Z,12.31
2023-04-19T18:45:12.275Z,12.28
2023-04-19T18:47:38.670Z,12.18
2023-04-19T18:50:06.532Z,12.05
2023-04-19T18:52:36.281Z,11.92
2023-04-19T18:55:03.797Z,11.94
2023-04-19T18:57:34.723Z,11.89
2023-04-19T19:00:02.063Z,11.77
2023-04-19T19:02:28.534Z,11.78
2023-04-19T19:04:57.978Z,11.68
2023-04-19T19:07:36.375Z,11.58
2023-04-19T19:10:18.665Z,11.46
2023-04-19T19:12:47.391Z,11.36
2023-04-19T19:15:14.269Z,11.22
2023-04-19T19:17:40.923Z,11.26
2023-04-19T19:20:08.049Z,11.20
2023-04-19T19:22:34.870Z,11.19
2023-04-19T19:25:01.454Z,11.17
2023-04-19T19:27:28.079Z,11.11
2023-04-19T19:29:54.431Z,11.12
2023-04-19T19:32:20.949Z,11.04
2023-04-19T19:37:17.420Z,10.92
2023-04-19T19:39:45.019Z,10.85
2023-04-19T19:42:16.389Z,10.76
2023-04-19T19:44:43.228Z,10.73
2023-04-19T19:47:10.981Z,10.80
2023-04-19T19:52:07.197Z,10.75
2023-04-19T19:54:33.691Z,10.69
2023-04-19T19:57:52.904Z,10.63
2023-04-19T19:59:51.626Z,10.60
2023-04-19T20:02:22.246Z,10.58
2023-04-19T20:04:49.179Z,10.56
2023-04-19T20:09:45.459Z,10.57
2023-04-19T20:12:13.293Z,10.51
2023-04-19T20:14:39.971Z,10.59
2023-04-19T20:17:06.482Z,10.51
2023-04-19T20:19:32.872Z,10.52
2023-04-19T20:22:00.251Z,10.43
2023-04-19T20:24:26.709Z,10.52
2023-04-19T20:26:53.089Z,10.36
2023-04-19T20:29:19.459Z,10.38
2023-04-19T20:31:45.898Z,10.27
2023-04-19T20:34:12.212Z,10.20
2023-04-19T20:36:39.392Z,10.10
2023-04-19T20:39:09.357Z,10.08
2023-04-19T20:41:35.934Z,10.14
2023-04-19T20:44:02.351Z,9.98
2023-04-19T20:46:28.697Z,9.96
2023-04-19T20:48:55.461Z,9.99
2023-04-19T20:51:21.958Z,9.97
2023-04-19T20:53:48.599Z,9.86
2023-04-19T20:56:14.944Z,9.91
2023-04-19T20:58:41.267Z,9.87
2023-04-19T21:01:07.872Z,9.82
2023-04-19T21:03:34.327Z,9.65
2023-04-19T21:06:00.736Z,9.62
2023-04-19T21:08:27.057Z,9.50
2023-04-19T21:10:53.430Z,9.50
2023-04-19T21:13:19.829Z,9.46
2023-04-19T21:15:46.242Z,9.40
2023-04-19T21:18:12.586Z,9.34
2023-04-19T21:20:39.428Z,9.31
2023-04-19T21:23:05.893Z,9.30
2023-04-19T21:25:32.256Z,9.28
2023-04-19T21:27:58.643Z,9.25
2023-04-19T21:30:25.716Z,9.12
2023-04-19T21:32:52.596Z,9.09
2023-04-19T21:35:19.484Z,9.02
2023-04-19T21:37:45.890Z,8.92
2023-04-19T21:40:12.435Z,8.88
2023-04-19T21:42:38.740Z,8.86
2023-04-19T21:45:05.812Z,8.88
2023-04-19T21:47:32.295Z,8.81
2023-04-19T21:49:58.661Z,8.72
2023-04-19T21:52:25.001Z,8.67
2023-04-19T21:54:51.411Z,8.66
2023-04-19T21:57:21.845Z,8.58
2023-04-19T21:59:48.214Z,8.56
2023-04-19T22:02:14.705Z,8.52
2023-04-19T22:04:41.574Z,8.42
2023-04-19T22:07:08.112Z,8.38
2023-04-19T22:09:34.509Z,8.32
2023-04-19T22:12:01.586Z,8.27
2023-04-19T22:14:28.263Z,8.25
2023-04-19T22:16:54.860Z,8.15
2023-04-19T22:19:23.239Z,8.16
2023-04-19T22:21:49.770Z,8.05
2023-04-19T22:24:16.439Z,8.02
2023-04-19T22:26:42.807Z,7.98
2023-04-19T22:29:09.152Z,7.92
2023-04-19T22:31:35.826Z,7.90
2023-04-19T22:34:02.227Z,7.92
2023-04-19T22:36:28.597Z,7.82
2023-04-19T22:38:54.922Z,7.79
2023-04-19T22:41:21.255Z,7.77
2023-04-19T22:43:47.638Z,7.70
2023-04-19T22:46:14.081Z,7.66
2023-04-19T22:48:40.811Z,7.65
2023-04-19T22:51:07.409Z,7.62
2023-04-19T22:53:33.733Z,7.60
2023-04-19T22:56:00.139Z,7.59
2023-04-19T22:58:26.528Z,7.65
2023-04-19T23:00:53.005Z,7.62
2023-04-19T23:03:19.611Z,7.63
2023-04-19T23:05:47.217Z,7.59
2023-04-19T23:08:15.108Z,7.58
2023-04-19T23:10:42.468Z,7.51
2023-04-19T23:13:10.319Z,7.46
2023-04-19T23:15:37.514Z,7.46
2023-04-19T23:18:04.262Z,7.43
2023-04-19T23:20:30.881Z,7.45
2023-04-19T23:22:57.285Z,7.44
2023-04-19T23:25:24.979Z,7.45
2023-04-19T23:27:51.572Z,7.43
2023-04-19T23:30:18.363Z,7.41
2023-04-19T23:32:44.846Z,7.23
2023-04-19T23:35:11.290Z,7.26
2023-04-19T23:37:37.982Z,7.30
2023-04-19T23:40:06.172Z,7.25
2023-04-19T23:42:32.647Z,7.22
2023-04-19T23:44:59.345Z,7.24
2023-04-19T23:47:25.993Z,7.13
2023-04-19T23:49:52.314Z,7.05
2023-04-19T23:52:22.700Z,6.94
2023-04-19T23:54:49.654Z,6.78
2023-04-19T23:57:16.020Z,6.81
2023-04-19T23:59:42.408Z,6.73
